sensor_id;sensor_type;location;lat;lon;timestamp;pressure;altitude;pressure_sealevel;temperature;humidity
829;BME280;396;52.558;13.188;2023-04-10T00:02:00;102091.03;;;4.09;97.57
829;BME280;396;52.558;13.188;2023-04-10T00:04:27;102087.97;;;4.05;97.56
829;BME280;396;52.558;13.188;2023-04-10T00:06:54;102094.94;;;4.07;97.51
829;BME280;396;52.558;13.188;2023-04-10T00:09:21;102093.41;;;3.99;97.45
829;BME280;396;52.558;13.188;2023-04-10T00:11:47;102101.06;;;3.95;97.52
829;BME280;396;52.558;13.188;2023-04-10T00:14:14;102089.34;;;3.90;97.07
829;BME280;396;52.558;13.188;2023-04-10T00:16:47;102086.31;;;4.04;96.78
829;BME280;396;52.558;13.188;2023-04-10T00:19:15;102090.75;;;3.92;96.62
829;BME280;396;52.558;13.188;2023-04-10T00:21:42;102078.78;;;3.95;96.18
829;BME280;396;52.558;13.188;2023-04-10T00:24:08;102074.91;;;3.91;95.67
829;BME280;396;52.558;13.188;2023-04-10T00:26:35;102075.28;;;3.69;97.37
829;BME280;396;52.558;13.188;2023-04-10T00:29:02;102068.56;;;3.60;98.55
829;BME280;396;52.558;13.188;2023-04-10T00:31:29;102064.19;;;3.66;97.69
829;BME280;396;52.558;13.188;2023-04-10T00:33:55;102066.19;;;3.70;98.14
829;BME280;396;52.558;13.188;2023-04-10T00:36:23;102061.88;;;3.69;98.17
829;BME280;396;52.558;13.188;2023-04-10T00:38:51;102070.41;;;3.60;99.99
829;BME280;396;52.558;13.188;2023-04-10T00:41:17;102059.97;;;3.51;100.00
829;BME280;396;52.558;13.188;2023-04-10T00:43:44;102056.31;;;3.46;100.00
829;BME280;396;52.558;13.188;2023-04-10T00:46:11;102055.84;;;3.49;100.00
829;BME280;396;52.558;13.188;2023-04-10T00:48:38;102061.19;;;3.49;100.00
829;BME280;396;52.558;13.188;2023-04-10T00:51:05;102057.78;;;3.42;100.00
829;BME280;396;52.558;13.188;2023-04-10T00:53:33;102061.25;;;3.42;100.00
829;BME280;396;52.558;13.188;2023-04-10T00:56:00;102059.97;;;3.51;100.00
829;BME280;396;52.558;13.188;2023-04-10T00:58:27;102054.72;;;3.63;100.00
829;BME280;396;52.558;13.188;2023-04-10T01:00:54;102054.94;;;3.62;100.00
829;BME280;396;52.558;13.188;2023-04-10T01:03:21;102048.53;;;3.63;100.00
829;BME280;396;52.558;13.188;2023-04-10T01:05:56;102048.31;;;3.64;100.00
829;BME280;396;52.558;13.188;2023-04-10T01:08:38;102045.00;;;3.69;99.58
829;BME280;396;52.558;13.188;2023-04-10T01:11:19;102042.63;;;3.54;99.89
829;BME280;396;52.558;13.188;2023-04-10T01:13:55;102045.13;;;3.49;100.00
829;BME280;396;52.558;13.188;2023-04-10T01:16:30;102046.06;;;3.61;99.03
829;BME280;396;52.558;13.188;2023-04-10T01:19:06;102046.72;;;3.57;97.95
829;BME280;396;52.558;13.188;2023-04-10T01:21:37;102041.88;;;3.47;98.09
829;BME280;396;52.558;13.188;2023-04-10T01:24:17;102060.06;;;3.38;97.13
829;BME280;396;52.558;13.188;2023-04-10T01:26:58;102051.47;;;3.29;96.15
829;BME280;396;52.558;13.188;2023-04-10T01:29:32;102051.72;;;3.21;95.99
829;BME280;396;52.558;13.188;2023-04-10T01:32:01;102053.44;;;3.09;95.93
829;BME280;396;52.558;13.188;2023-04-10T01:34:34;102056.72;;;3.11;96.49
829;BME280;396;52.558;13.188;2023-04-10T01:37:04;102047.63;;;3.19;96.22
829;BME280;396;52.558;13.188;2023-04-10T01:39:36;102048.88;;;3.10;96.24
829;BME280;396;52.558;13.188;2023-04-10T01:42:05;102048.97;;;2.96;96.69
829;BME280;396;52.558;13.188;2023-04-10T01:44:35;102049.59;;;2.92;96.85
829;BME280;396;52.558;13.188;2023-04-10T01:47:05;102046.50;;;2.95;97.04
829;BME280;396;52.558;13.188;2023-04-10T01:49:33;102048.84;;;2.85;97.24
829;BME280;396;52.558;13.188;2023-04-10T01:52:02;102043.50;;;2.78;97.31
829;BME280;396;52.558;13.188;2023-04-10T01:54:30;102046.81;;;2.73;98.90
829;BME280;396;52.558;13.188;2023-04-10T01:56:58;102048.25;;;2.76;100.00
829;BME280;396;52.558;13.188;2023-04-10T01:59:26;102050.72;;;2.77;100.00
829;BME280;396;52.558;13.188;2023-04-10T02:01:56;102047.44;;;2.75;100.00
829;BME280;396;52.558;13.188;2023-04-10T02:04:23;102047.16;;;2.90;100.00
829;BME280;396;52.558;13.188;2023-04-10T02:06:56;102043.59;;;3.03;100.00
829;BME280;396;52.558;13.188;2023-04-10T02:09:33;102043.75;;;3.08;100.00
829;BME280;396;52.558;13.188;2023-04-10T02:12:03;102044.47;;;2.97;100.00
829;BME280;396;52.558;13.188;2023-04-10T02:14:32;102041.56;;;2.92;100.00
829;BME280;396;52.558;13.188;2023-04-10T02:17:02;102040.13;;;2.96;100.00
829;BME280;396;52.558;13.188;2023-04-10T02:19:30;102032.97;;;2.83;100.00
829;BME280;396;52.558;13.188;2023-04-10T02:21:58;102034.06;;;2.75;100.00
829;BME280;396;52.558;13.188;2023-04-10T02:24:25;102032.66;;;2.66;100.00
829;BME280;396;52.558;13.188;2023-04-10T02:26:52;102035.13;;;2.68;100.00
829;BME280;396;52.558;13.188;2023-04-10T02:29:19;102037.38;;;2.64;100.00
829;BME280;396;52.558;13.188;2023-04-10T02:31:45;102039.47;;;2.62;100.00
829;BME280;396;52.558;13.188;2023-04-10T02:34:13;102039.44;;;2.69;99.80
829;BME280;396;52.558;13.188;2023-04-10T02:36:40;102045.41;;;2.64;97.51
829;BME280;396;52.558;13.188;2023-04-10T02:39:07;102042.19;;;2.49;98.15
829;BME280;396;52.558;13.188;2023-04-10T02:41:33;102039.56;;;2.36;98.34
829;BME280;396;52.558;13.188;2023-04-10T02:44:00;102046.97;;;2.34;99.03
829;BME280;396;52.558;13.188;2023-04-10T02:46:26;102051.47;;;2.40;98.70
829;BME280;396;52.558;13.188;2023-04-10T02:48:54;102037.47;;;2.44;97.71
829;BME280;396;52.558;13.188;2023-04-10T02:51:22;102047.78;;;2.41;97.84
829;BME280;396;52.558;13.188;2023-04-10T02:53:49;102042.84;;;2.38;100.00
829;BME280;396;52.558;13.188;2023-04-10T02:56:17;102045.31;;;2.39;100.00
829;BME280;396;52.558;13.188;2023-04-10T02:58:43;102049.81;;;2.45;100.00
829;BME280;396;52.558;13.188;2023-04-10T03:01:10;102049.41;;;2.42;99.99
829;BME280;396;52.558;13.188;2023-04-10T03:03:37;102054.53;;;2.43;98.59
829;BME280;396;52.558;13.188;2023-04-10T03:06:04;102054.16;;;2.40;98.13
829;BME280;396;52.558;13.188;2023-04-10T03:08:32;102054.59;;;2.23;100.00
829;BME280;396;52.558;13.188;2023-04-10T03:10:58;102057.69;;;2.20;100.00
829;BME280;396;52.558;13.188;2023-04-10T03:13:25;102056.03;;;2.26;100.00
829;BME280;396;52.558;13.188;2023-04-10T03:15:51;102058.09;;;2.31;99.72
829;BME280;396;52.558;13.188;2023-04-10T03:18:18;102062.00;;;2.21;99.14
829;BME280;396;52.558;13.188;2023-04-10T03:20:45;102049.44;;;2.28;98.22
829;BME280;396;52.558;13.188;2023-04-10T03:23:11;102058.28;;;2.29;98.04
829;BME280;396;52.558;13.188;2023-04-10T03:25:39;102052.53;;;2.25;97.71
829;BME280;396;52.558;13.188;2023-04-10T03:28:06;102054.38;;;2.32;97.41
829;BME280;396;52.558;13.188;2023-04-10T03:30:33;102052.75;;;2.31;97.57
829;BME280;396;52.558;13.188;2023-04-10T03:33:01;102043.28;;;2.28;98.26
829;BME280;396;52.558;13.188;2023-04-10T03:35:27;102044.72;;;2.31;98.73
829;BME280;396;52.558;13.188;2023-04-10T03:37:54;102037.94;;;2.35;98.14
829;BME280;396;52.558;13.188;2023-04-10T03:40:21;102049.81;;;2.39;97.47
829;BME280;396;52.558;13.188;2023-04-10T03:42:48;102047.41;;;2.31;98.79
829;BME280;396;52.558;13.188;2023-04-10T03:45:15;102039.59;;;2.16;99.47
829;BME280;396;52.558;13.188;2023-04-10T03:47:42;102044.09;;;2.28;99.64
829;BME280;396;52.558;13.188;2023-04-10T03:50:09;102044.94;;;2.22;100.00
829;BME280;396;52.558;13.188;2023-04-10T03:52:36;102046.56;;;2.23;99.67
829;BME280;396;52.558;13.188;2023-04-10T03:55:02;102044.09;;;2.28;100.00
829;BME280;396;52.558;13.188;2023-04-10T03:57:29;102035.28;;;2.21;99.91
829;BME280;396;52.558;13.188;2023-04-10T03:59:57;102040.81;;;2.26;99.65
829;BME280;396;52.558;13.188;2023-04-10T04:02:24;102038.34;;;2.25;99.26
829;BME280;396;52.558;13.188;2023-04-10T04:04:51;102038.16;;;2.26;98.82
829;BME280;396;52.558;13.188;2023-04-10T04:07:18;102033.22;;;2.23;99.75
829;BME280;396;52.558;13.188;2023-04-10T04:09:44;102043.69;;;2.32;98.59
829;BME280;396;52.558;13.188;2023-04-10T04:12:11;102038.97;;;2.20;98.19
829;BME280;396;52.558;13.188;2023-04-10T04:14:37;102033.84;;;2.12;97.08
829;BME280;396;52.558;13.188;2023-04-10T04:17:05;102042.25;;;2.16;96.86
829;BME280;396;52.558;13.188;2023-04-10T04:19:32;102036.13;;;2.09;96.59
829;BME280;396;52.558;13.188;2023-04-10T04:21:58;102034.09;;;1.91;97.39
829;BME280;396;52.558;13.188;2023-04-10T04:24:25;102033.88;;;2.06;96.58
829;BME280;396;52.558;13.188;2023-04-10T04:26:52;102039.81;;;2.08;96.60
829;BME280;396;52.558;13.188;2023-04-10T04:29:18;102035.72;;;2.05;97.12
829;BME280;396;52.558;13.188;2023-04-10T04:31:45;102032.84;;;2.07;97.32
829;BME280;396;52.558;13.188;2023-04-10T04:34:13;102035.72;;;2.05;98.36
829;BME280;396;52.558;13.188;2023-04-10T04:36:40;102034.09;;;2.04;98.54
829;BME280;396;52.558;13.188;2023-04-10T04:39:07;102039.00;;;2.07;98.24
829;BME280;396;52.558;13.188;2023-04-10T04:41:34;102043.13;;;1.90;99.59
829;BME280;396;52.558;13.188;2023-04-10T04:44:01;102039.22;;;1.99;98.84
829;BME280;396;52.558;13.188;2023-04-10T04:46:28;102035.53;;;2.00;98.73
829;BME280;396;52.558;13.188;2023-04-10T04:48:55;102033.47;;;2.02;98.89
829;BME280;396;52.558;13.188;2023-04-10T04:51:23;102038.81;;;2.09;99.88
829;BME280;396;52.558;13.188;2023-04-10T04:53:50;102042.50;;;2.14;100.00
829;BME280;396;52.558;13.188;2023-04-10T04:56:16;102042.50;;;2.14;100.00
829;BME280;396;52.558;13.188;2023-04-10T04:58:43;102050.06;;;2.24;100.00
829;BME280;396;52.558;13.188;2023-04-10T05:01:10;102046.16;;;2.26;100.00
829;BME280;396;52.558;13.188;2023-04-10T05:03:37;102039.38;;;2.31;100.00
829;BME280;396;52.558;13.188;2023-04-10T05:06:03;102046.53;;;2.37;100.00
829;BME280;396;52.558;13.188;2023-04-10T05:08:32;102040.56;;;2.48;100.00
829;BME280;396;52.558;13.188;2023-04-10T05:10:58;102050.72;;;2.77;100.00
829;BME280;396;52.558;13.188;2023-04-10T05:13:25;102042.78;;;2.96;100.00
829;BME280;396;52.558;13.188;2023-04-10T05:15:52;102051.38;;;3.11;100.00
829;BME280;396;52.558;13.188;2023-04-10T05:18:18;102055.03;;;3.17;100.00
829;BME280;396;52.558;13.188;2023-04-10T05:20:47;102053.59;;;3.14;100.00
829;BME280;396;52.558;13.188;2023-04-10T05:23:14;102056.41;;;3.26;100.00
829;BME280;396;52.558;13.188;2023-04-10T05:25:42;102057.22;;;3.33;100.00
829;BME280;396;52.558;13.188;2023-04-10T05:28:09;102060.34;;;3.55;100.00
829;BME280;396;52.558;13.188;2023-04-10T05:30:35;102058.44;;;3.62;100.00
829;BME280;396;52.558;13.188;2023-04-10T05:33:02;102054.25;;;3.73;100.00
829;BME280;396;52.558;13.188;2023-04-10T05:35:29;102055.59;;;3.82;100.00
829;BME280;396;52.558;13.188;2023-04-10T05:37:55;102058.75;;;3.97;100.00
829;BME280;396;52.558;13.188;2023-04-10T05:40:23;102046.66;;;4.13;100.00
829;BME280;396;52.558;13.188;2023-04-10T05:42:51;102049.78;;;4.28;100.00
829;BME280;396;52.558;13.188;2023-04-10T05:45:18;102049.44;;;4.43;99.89
829;BME280;396;52.558;13.188;2023-04-10T05:47:45;102050.09;;;4.57;100.00
829;BME280;396;52.558;13.188;2023-04-10T05:50:12;102056.94;;;4.71;100.00
829;BME280;396;52.558;13.188;2023-04-10T05:52:38;102057.81;;;4.84;100.00
829;BME280;396;52.558;13.188;2023-04-10T05:55:06;102057.16;;;5.00;100.00
829;BME280;396;52.558;13.188;2023-04-10T05:57:33;102051.16;;;5.16;100.00
829;BME280;396;52.558;13.188;2023-04-10T06:00:01;102050.97;;;5.29;100.00
829;BME280;396;52.558;13.188;2023-04-10T06:02:27;102048.78;;;5.38;100.00
829;BME280;396;52.558;13.188;2023-04-10T06:04:54;102046.81;;;5.57;100.00
829;BME280;396;52.558;13.188;2023-04-10T06:07:21;102047.22;;;5.72;100.00
829;BME280;396;52.558;13.188;2023-04-10T06:09:47;102045.47;;;5.90;100.00
829;BME280;396;52.558;13.188;2023-04-10T06:12:14;102051.47;;;6.03;100.00
829;BME280;396;52.558;13.188;2023-04-10T06:14:41;102044.44;;;6.14;100.00
829;BME280;396;52.558;13.188;2023-04-10T06:17:09;102040.09;;;6.25;100.00
829;BME280;396;52.558;13.188;2023-04-10T06:19:36;102030.84;;;6.32;100.00
829;BME280;396;52.558;13.188;2023-04-10T06:22:02;102040.44;;;6.40;100.00
829;BME280;396;52.558;13.188;2023-04-10T06:24:29;102038.66;;;6.46;100.00
829;BME280;396;52.558;13.188;2023-04-10T06:26:56;102039.81;;;6.50;100.00
829;BME280;396;52.558;13.188;2023-04-10T06:29:22;102035.13;;;6.57;100.00
829;BME280;396;52.558;13.188;2023-04-10T06:31:49;102030.91;;;6.61;100.00
829;BME280;396;52.558;13.188;2023-04-10T06:34:17;102030.28;;;6.71;100.00
829;BME280;396;52.558;13.188;2023-04-10T06:36:44;102026.16;;;6.80;100.00
829;BME280;396;52.558;13.188;2023-04-10T06:39:10;102025.44;;;6.85;100.00
829;BME280;396;52.558;13.188;2023-04-10T06:41:37;102031.50;;;6.92;100.00
829;BME280;396;52.558;13.188;2023-04-10T06:44:04;102037.31;;;7.00;100.00
829;BME280;396;52.558;13.188;2023-04-10T06:46:30;102036.34;;;7.06;100.00
829;BME280;396;52.558;13.188;2023-04-10T06:48:57;102029.75;;;7.14;100.00
829;BME280;396;52.558;13.188;2023-04-10T06:51:25;102034.16;;;7.20;100.00
829;BME280;396;52.558;13.188;2023-04-10T06:53:51;102024.06;;;7.27;100.00
829;BME280;396;52.558;13.188;2023-04-10T06:56:18;102031.75;;;7.36;100.00
829;BME280;396;52.558;13.188;2023-04-10T06:58:45;102032.72;;;7.46;100.00
829;BME280;396;52.558;13.188;2023-04-10T07:01:11;102032.88;;;7.56;100.00
829;BME280;396;52.558;13.188;2023-04-10T07:03:38;102028.00;;;7.70;100.00
829;BME280;396;52.558;13.188;2023-04-10T07:06:05;102034.38;;;7.81;100.00
829;BME280;396;52.558;13.188;2023-04-10T07:08:34;102028.31;;;7.91;100.00
829;BME280;396;52.558;13.188;2023-04-10T07:11:00;102029.78;;;7.98;100.00
829;BME280;396;52.558;13.188;2023-04-10T07:13:27;102025.91;;;8.11;100.00
829;BME280;396;52.558;13.188;2023-04-10T07:15:53;102023.97;;;8.28;100.00
829;BME280;396;52.558;13.188;2023-04-10T07:18:20;102034.25;;;8.48;100.00
829;BME280;396;52.558;13.188;2023-04-10T07:20:47;102035.81;;;8.66;100.00
829;BME280;396;52.558;13.188;2023-04-10T07:23:14;102031.16;;;8.83;100.00
829;BME280;396;52.558;13.188;2023-04-10T07:25:42;102035.06;;;8.98;100.00
829;BME280;396;52.558;13.188;2023-04-10T07:28:08;102037.59;;;9.04;100.00
829;BME280;396;52.558;13.188;2023-04-10T07:30:35;102032.38;;;9.25;100.00
829;BME280;396;52.558;13.188;2023-04-10T07:33:02;102030.13;;;9.44;100.00
829;BME280;396;52.558;13.188;2023-04-10T07:35:29;102032.94;;;9.59;100.00
829;BME280;396;52.558;13.188;2023-04-10T07:37:55;102030.31;;;9.69;100.00
829;BME280;396;52.558;13.188;2023-04-10T07:40:22;102023.38;;;9.78;100.00
829;BME280;396;52.558;13.188;2023-04-10T07:42:50;102032.66;;;9.93;99.63
829;BME280;396;52.558;13.188;2023-04-10T07:45:17;102025.66;;;10.02;98.75
829;BME280;396;52.558;13.188;2023-04-10T07:47:43;102027.34;;;10.13;97.53
829;BME280;396;52.558;13.188;2023-04-10T07:50:10;102029.38;;;10.28;96.68
829;BME280;396;52.558;13.188;2023-04-10T07:52:37;102034.81;;;10.33;95.62
829;BME280;396;52.558;13.188;2023-04-10T07:55:04;102027.81;;;10.47;94.76
829;BME280;396;52.558;13.188;2023-04-10T07:57:30;102026.75;;;10.53;94.79
829;BME280;396;52.558;13.188;2023-04-10T07:59:58;102028.41;;;10.59;94.46
829;BME280;396;52.558;13.188;2023-04-10T08:02:25;102025.72;;;10.65;93.90
829;BME280;396;52.558;13.188;2023-04-10T08:04:52;102024.69;;;10.76;92.97
829;BME280;396;52.558;13.188;2023-04-10T08:07:19;102019.00;;;10.82;93.12
829;BME280;396;52.558;13.188;2023-04-10T08:09:46;102021.72;;;10.93;91.61
829;BME280;396;52.558;13.188;2023-04-10T08:12:13;102022.31;;;11.05;91.34
829;BME280;396;52.558;13.188;2023-04-10T08:14:39;102022.31;;;11.15;89.56
829;BME280;396;52.558;13.188;2023-04-10T08:17:07;102016.63;;;11.22;89.78
829;BME280;396;52.558;13.188;2023-04-10T08:19:38;102010.13;;;11.28;89.77
829;BME280;396;52.558;13.188;2023-04-10T08:22:05;102013.13;;;11.36;88.48
829;BME280;396;52.558;13.188;2023-04-10T08:24:31;102012.03;;;11.37;88.69
829;BME280;396;52.558;13.188;2023-04-10T08:26:58;102012.59;;;11.40;88.98
829;BME280;396;52.558;13.188;2023-04-10T08:29:25;102008.75;;;11.51;89.01
829;BME280;396;52.558;13.188;2023-04-10T08:31:52;102014.22;;;11.61;88.88
829;BME280;396;52.558;13.188;2023-04-10T08:34:22;102003.88;;;11.68;88.49
829;BME280;396;52.558;13.188;2023-04-10T08:36:48;101995.44;;;11.80;88.17
829;BME280;396;52.558;13.188;2023-04-10T08:39:15;101995.19;;;11.92;87.02
829;BME280;396;52.558;13.188;2023-04-10T08:41:42;102004.41;;;11.96;86.53
829;BME280;396;52.558;13.188;2023-04-10T08:44:09;101995.13;;;12.07;87.01
829;BME280;396;52.558;13.188;2023-04-10T08:46:41;102001.91;;;12.15;86.29
829;BME280;396;52.558;13.188;2023-04-10T08:49:09;101993.97;;;12.28;86.27
829;BME280;396;52.558;13.188;2023-04-10T08:51:42;101981.16;;;12.44;84.97
829;BME280;396;52.558;13.188;2023-04-10T08:54:16;101983.56;;;12.51;84.35
829;BME280;396;52.558;13.188;2023-04-10T08:56:47;101979.72;;;12.62;84.00
829;BME280;396;52.558;13.188;2023-04-10T08:59:15;101981.84;;;12.65;83.70
829;BME280;396;52.558;13.188;2023-04-10T09:01:41;101982.06;;;12.74;82.28
829;BME280;396;52.558;13.188;2023-04-10T09:04:10;101975.53;;;12.80;82.17
829;BME280;396;52.558;13.188;2023-04-10T09:06:38;101969.69;;;12.97;78.18
829;BME280;396;52.558;13.188;2023-04-10T09:09:05;101968.00;;;13.06;76.98
829;BME280;396;52.558;13.188;2023-04-10T09:11:57;101967.41;;;13.09;77.95
829;BME280;396;52.558;13.188;2023-04-10T09:14:26;101967.63;;;13.18;74.80
829;BME280;396;52.558;13.188;2023-04-10T09:17:07;101956.16;;;13.26;73.14
829;BME280;396;52.558;13.188;2023-04-10T09:19:35;101961.84;;;13.29;74.03
829;BME280;396;52.558;13.188;2023-04-10T09:22:03;101958.53;;;13.32;70.88
829;BME280;396;52.558;13.188;2023-04-10T09:24:30;101945.72;;;13.38;71.21
829;BME280;396;52.558;13.188;2023-04-10T09:27:01;101948.00;;;13.26;72.87
829;BME280;396;52.558;13.188;2023-04-10T09:29:40;101943.00;;;13.38;68.20
829;BME280;396;52.558;13.188;2023-04-10T09:32:07;101945.88;;;13.52;68.08
829;BME280;396;52.558;13.188;2023-04-10T09:34:36;101935.97;;;13.61;69.40
829;BME280;396;52.558;13.188;2023-04-10T09:37:18;101932.72;;;13.59;69.84
829;BME280;396;52.558;13.188;2023-04-10T09:39:45;101925.56;;;13.68;70.63
829;BME280;396;52.558;13.188;2023-04-10T09:42:11;101921.72;;;13.69;70.25
829;BME280;396;52.558;13.188;2023-04-10T09:44:39;101920.06;;;13.73;70.83
829;BME280;396;52.558;13.188;2023-04-10T09:47:15;101917.16;;;13.88;68.88
829;BME280;396;52.558;13.188;2023-04-10T09:49:44;101912.09;;;14.01;64.81
829;BME280;396;52.558;13.188;2023-04-10T09:52:18;101915.22;;;14.13;62.59
829;BME280;396;52.558;13.188;2023-04-10T09:54:45;101917.75;;;14.28;62.21
829;BME280;396;52.558;13.188;2023-04-10T09:57:12;101909.72;;;14.37;63.70
829;BME280;396;52.558;13.188;2023-04-10T09:59:42;101902.19;;;14.53;63.21
829;BME280;396;52.558;13.188;2023-04-10T10:02:12;101907.47;;;14.63;63.21
829;BME280;396;52.558;13.188;2023-04-10T10:04:39;101895.66;;;14.68;63.67
829;BME280;396;52.558;13.188;2023-04-10T10:07:08;101893.38;;;14.75;64.54
829;BME280;396;52.558;13.188;2023-04-10T10:09:36;101895.63;;;14.86;59.96
829;BME280;396;52.558;13.188;2023-04-10T10:12:03;101891.22;;;14.91;63.16
829;BME280;396;52.558;13.188;2023-04-10T10:14:33;101894.06;;;14.99;62.96
829;BME280;396;52.558;13.188;2023-04-10T10:17:07;101895.75;;;15.14;60.29
829;BME280;396;52.558;13.188;2023-04-10T10:19:41;101883.22;;;15.27;58.17
829;BME280;396;52.558;13.188;2023-04-10T10:22:11;101869.19;;;15.33;57.78
829;BME280;396;52.558;13.188;2023-04-10T10:24:44;101870.31;;;15.32;60.25
829;BME280;396;52.558;13.188;2023-04-10T10:27:14;101872.41;;;15.35;60.93
829;BME280;396;52.558;13.188;2023-04-10T10:29:43;101869.69;;;15.49;57.74
829;BME280;396;52.558;13.188;2023-04-10T10:32:12;101862.41;;;15.45;60.72
829;BME280;396;52.558;13.188;2023-04-10T10:34:39;101862.94;;;15.47;62.53
829;BME280;396;52.558;13.188;2023-04-10T10:37:07;101859.06;;;15.61;61.00
829;BME280;396;52.558;13.188;2023-04-10T10:39:44;101856.00;;;15.68;58.18
829;BME280;396;52.558;13.188;2023-04-10T10:42:19;101845.44;;;15.75;59.55
829;BME280;396;52.558;13.188;2023-04-10T10:44:52;101841.28;;;15.92;60.92
829;BME280;396;52.558;13.188;2023-04-10T10:47:23;101836.00;;;16.09;60.24
829;BME280;396;52.558;13.188;2023-04-10T10:49:57;101835.09;;;16.36;59.12
829;BME280;396;52.558;13.188;2023-04-10T10:52:43;101838.03;;;16.62;58.32
829;BME280;396;52.558;13.188;2023-04-10T10:55:31;101832.94;;;16.69;57.00
829;BME280;396;52.558;13.188;2023-04-10T10:58:02;101830.59;;;16.76;54.29
829;BME280;396;52.558;13.188;2023-04-10T11:01:03;101838.06;;;16.84;56.18
829;BME280;396;52.558;13.188;2023-04-10T11:03:30;101841.22;;;17.00;56.42
829;BME280;396;52.558;13.188;2023-04-10T11:05:58;101827.81;;;16.99;56.16
829;BME280;396;52.558;13.188;2023-04-10T11:08:43;101817.47;;;17.18;57.24
829;BME280;396;52.558;13.188;2023-04-10T11:11:15;101818.34;;;17.36;55.34
829;BME280;396;52.558;13.188;2023-04-10T11:14:12;101810.34;;;17.57;55.15
829;BME280;396;52.558;13.188;2023-04-10T11:16:44;101810.72;;;17.73;54.90
829;BME280;396;52.558;13.188;2023-04-10T11:19:12;101810.47;;;18.26;53.92
829;BME280;396;52.558;13.188;2023-04-10T11:22:01;101812.16;;;19.38;50.36
829;BME280;396;52.558;13.188;2023-04-10T11:24:28;101804.38;;;20.21;48.35
829;BME280;396;52.558;13.188;2023-04-10T11:26:56;101796.28;;;21.03;46.71
829;BME280;396;52.558;13.188;2023-04-10T11:29:32;101798.16;;;21.60;45.59
829;BME280;396;52.558;13.188;2023-04-10T11:32:01;101799.28;;;21.83;44.23
829;BME280;396;52.558;13.188;2023-04-10T11:34:28;101795.50;;;22.28;43.08
829;BME280;396;52.558;13.188;2023-04-10T11:36:57;101795.78;;;22.83;41.85
829;BME280;396;52.558;13.188;2023-04-10T11:39:25;101796.44;;;22.92;41.36
829;BME280;396;52.558;13.188;2023-04-10T11:41:53;101791.28;;;23.22;39.74
829;BME280;396;52.558;13.188;2023-04-10T11:44:28;101782.19;;;22.90;39.27
829;BME280;396;52.558;13.188;2023-04-10T11:46:55;101785.53;;;22.83;39.59
829;BME280;396;52.558;13.188;2023-04-10T11:49:24;101779.97;;;23.11;40.64
829;BME280;396;52.558;13.188;2023-04-10T11:51:52;101779.59;;;23.64;39.86
829;BME280;396;52.558;13.188;2023-04-10T11:54:20;101774.06;;;23.99;40.16
829;BME280;396;52.558;13.188;2023-04-10T11:56:55;101768.16;;;24.20;39.31
829;BME280;396;52.558;13.188;2023-04-10T11:59:23;101765.69;;;24.77;38.66
829;BME280;396;52.558;13.188;2023-04-10T12:01:52;101769.56;;;24.49;38.11
829;BME280;396;52.558;13.188;2023-04-10T12:04:21;101751.63;;;23.85;38.72
829;BME280;396;52.558;13.188;2023-04-10T12:06:49;101742.31;;;23.58;39.81
829;BME280;396;52.558;13.188;2023-04-10T12:09:18;101745.38;;;23.69;40.29
829;BME280;396;52.558;13.188;2023-04-10T12:11:49;101738.16;;;24.03;39.48
829;BME280;396;52.558;13.188;2023-04-10T12:14:18;101735.16;;;24.31;39.26
829;BME280;396;52.558;13.188;2023-04-10T12:16:45;101731.22;;;24.97;38.28
829;BME280;396;52.558;13.188;2023-04-10T12:19:14;101725.47;;;25.36;36.53
829;BME280;396;52.558;13.188;2023-04-10T12:21:41;101730.00;;;25.21;36.53
829;BME280;396;52.558;13.188;2023-04-10T12:24:08;101725.59;;;24.94;37.42
829;BME280;396;52.558;13.188;2023-04-10T12:26:35;101727.50;;;24.89;37.74
829;BME280;396;52.558;13.188;2023-04-10T12:29:02;101719.97;;;25.70;37.27
829;BME280;396;52.558;13.188;2023-04-10T12:31:31;101721.88;;;25.35;34.18
829;BME280;396;52.558;13.188;2023-04-10T12:33:59;101710.75;;;24.82;35.43
829;BME280;396;52.558;13.188;2023-04-10T12:36:29;101704.25;;;24.71;36.91
829;BME280;396;52.558;13.188;2023-04-10T12:38:58;101703.13;;;25.25;36.58
829;BME280;396;52.558;13.188;2023-04-10T12:41:27;101697.69;;;25.62;34.84
829;BME280;396;52.558;13.188;2023-04-10T12:44:06;101691.00;;;25.67;37.11
829;BME280;396;52.558;13.188;2023-04-10T12:46:33;101693.47;;;25.72;35.72
829;BME280;396;52.558;13.188;2023-04-10T12:49:07;101687.91;;;25.72;35.43
829;BME280;396;52.558;13.188;2023-04-10T12:51:43;101682.16;;;25.58;35.38
829;BME280;396;52.558;13.188;2023-04-10T12:54:09;101673.13;;;24.35;37.37
829;BME280;396;52.558;13.188;2023-04-10T12:56:40;101667.34;;;24.02;38.46
829;BME280;396;52.558;13.188;2023-04-10T12:59:06;101660.22;;;24.43;38.46
829;BME280;396;52.558;13.188;2023-04-10T13:01:33;101653.31;;;24.79;37.08
829;BME280;396;52.558;13.188;2023-04-10T13:03:59;101652.53;;;25.35;35.87
829;BME280;396;52.558;13.188;2023-04-10T13:06:26;101642.56;;;25.61;36.16
829;BME280;396;52.558;13.188;2023-04-10T13:08:54;101642.84;;;25.82;36.62
829;BME280;396;52.558;13.188;2023-04-10T13:11:21;101637.44;;;25.97;36.58
829;BME280;396;52.558;13.188;2023-04-10T13:13:48;101634.00;;;25.73;35.23
829;BME280;396;52.558;13.188;2023-04-10T13:16:16;101626.50;;;26.14;35.32
829;BME280;396;52.558;13.188;2023-04-10T13:18:43;101619.53;;;26.31;35.06
829;BME280;396;52.558;13.188;2023-04-10T13:21:10;101623.63;;;26.04;33.79
829;BME280;396;52.558;13.188;2023-04-10T13:23:36;101616.19;;;25.44;34.82
829;BME280;396;52.558;13.188;2023-04-10T13:26:05;101592.75;;;24.81;35.66
829;BME280;396;52.558;13.188;2023-04-10T13:28:31;101590.03;;;24.12;38.05
829;BME280;396;52.558;13.188;2023-04-10T13:30:58;101590.88;;;24.16;38.31
829;BME280;396;52.558;13.188;2023-04-10T13:33:24;101587.59;;;24.53;37.73